createdAt,value
2018-09-30T00:00:44.746Z,4.00
2018-09-30T00:03:17.993Z,3.80
2018-09-30T00:05:48.549Z,3.87
2018-09-30T00:08:19.608Z,3.77
2018-09-30T00:10:51.982Z,4.10
2018-09-30T00:13:23.006Z,3.60
2018-09-30T00:15:53.591Z,4.10
2018-09-30T00:18:24.600Z,3.90
2018-09-30T00:20:56.386Z,3.80
2018-09-30T00:23:27.703Z,3.60
2018-09-30T00:26:02.989Z,3.93
2018-09-30T00:28:34.094Z,3.60
2018-09-30T00:31:05.146Z,3.23
2018-09-30T00:33:39.674Z,3.50
2018-09-30T00:36:10.591Z,3.53
2018-09-30T00:38:41.197Z,3.80
2018-09-30T00:41:11.899Z,3.77
2018-09-30T00:43:43.522Z,3.67
2018-09-30T00:46:13.677Z,4.40
2018-09-30T00:48:43.986Z,3.73
2018-09-30T00:51:14.607Z,4.00
2018-09-30T00:53:45.790Z,4.20
2018-09-30T00:56:17.212Z,3.83
2018-09-30T00:58:47.211Z,3.70
2018-09-30T01:01:17.675Z,3.47
2018-09-30T01:03:48.355Z,3.67
2018-09-30T01:06:19.885Z,4.17
2018-09-30T01:08:50.106Z,3.47
2018-09-30T01:11:20.515Z,3.83
2018-09-30T01:13:51.341Z,3.70
2018-09-30T01:16:22.504Z,3.40
2018-09-30T01:18:53.158Z,3.60
2018-09-30T01:21:23.820Z,3.50
2018-09-30T01:23:53.955Z,3.60
2018-09-30T01:26:26.745Z,3.40
2018-09-30T01:28:57.419Z,3.80
2018-09-30T01:31:27.691Z,3.90
2018-09-30T01:33:58.019Z,3.60
2018-09-30T01:36:28.845Z,3.97
2018-09-30T01:38:59.197Z,3.70
2018-09-30T01:41:30.803Z,3.67
2018-09-30T01:44:01.362Z,3.83
2018-09-30T01:46:32.002Z,3.73
2018-09-30T01:49:03.438Z,3.63
2018-09-30T01:51:37.886Z,3.47
2018-09-30T01:54:09.398Z,3.80
2018-09-30T01:56:40.325Z,3.80
2018-09-30T01:59:10.426Z,3.73
2018-09-30T02:01:41.017Z,3.77
2018-09-30T02:04:11.718Z,3.60
2018-09-30T02:06:42.696Z,3.93
2018-09-30T02:09:13.150Z,4.53
2018-09-30T02:11:45.970Z,3.70
2018-09-30T02:14:17.323Z,4.30
2018-09-30T02:16:47.834Z,3.90
2018-09-30T02:19:18.202Z,3.60
2018-09-30T02:21:48.856Z,3.30
2018-09-30T02:24:19.048Z,3.77
2018-09-30T02:26:49.448Z,3.60
2018-09-30T02:29:21.300Z,3.30
2018-09-30T02:31:51.250Z,3.60
2018-09-30T02:34:23.129Z,3.70
2018-09-30T02:36:54.507Z,4.00
2018-09-30T02:39:24.746Z,3.53
2018-09-30T02:41:55.917Z,3.30
2018-09-30T02:44:28.390Z,3.50
2018-09-30T02:46:58.523Z,3.30
2018-09-30T02:49:28.766Z,3.73
2018-09-30T02:52:00.530Z,3.50
2018-09-30T02:54:32.398Z,3.07
2018-09-30T02:57:03.853Z,3.07
2018-09-30T02:59:35.342Z,3.33
2018-09-30T03:02:05.377Z,3.20
2018-09-30T03:04:35.536Z,3.67
2018-09-30T03:07:10.627Z,3.27
2018-09-30T03:09:43.415Z,3.13
2018-09-30T03:12:13.251Z,3.27
2018-09-30T03:14:43.721Z,3.10
2018-09-30T03:17:14.576Z,3.33
2018-09-30T03:19:48.003Z,3.60
2018-09-30T03:22:18.804Z,3.30
2018-09-30T03:24:49.379Z,3.13
2018-09-30T03:27:20.743Z,3.40
2018-09-30T03:29:51.860Z,3.33
2018-09-30T03:32:21.907Z,4.00
2018-09-30T03:34:52.474Z,3.93
2018-09-30T03:37:23.028Z,3.70
2018-09-30T03:39:53.763Z,3.53
2018-09-30T03:42:24.684Z,3.60
2018-09-30T03:44:55.459Z,3.93
2018-09-30T03:47:25.581Z,3.30
2018-09-30T03:49:55.666Z,3.40
2018-09-30T03:52:29.887Z,3.80
2018-09-30T03:55:00.510Z,3.70
2018-09-30T03:57:32.475Z,3.40
2018-09-30T04:00:02.917Z,3.00
2018-09-30T04:02:33.218Z,3.37
2018-09-30T04:05:03.706Z,3.83
2018-09-30T04:07:34.270Z,3.63
2018-09-30T04:10:05.915Z,3.33
2018-09-30T04:12:36.026Z,4.00
2018-09-30T04:15:06.257Z,3.47
2018-09-30T04:17:36.742Z,3.50
2018-09-30T04:20:07.051Z,3.57
2018-09-30T04:22:37.572Z,3.93
2018-09-30T04:25:07.926Z,4.60
2018-09-30T04:27:38.125Z,4.30
2018-09-30T04:30:08.074Z,5.00
2018-09-30T04:32:38.433Z,4.50
2018-09-30T04:35:08.914Z,4.90
2018-09-30T04:37:40.070Z,4.50
2018-09-30T04:40:10.687Z,3.77
2018-09-30T04:42:41.858Z,4.00
2018-09-30T04:45:12.185Z,4.10
2018-09-30T04:47:43.797Z,3.70
2018-09-30T04:50:14.919Z,4.03
2018-09-30T04:52:45.949Z,3.90
2018-09-30T04:55:17.093Z,3.50
2018-09-30T04:57:47.887Z,3.87
2018-09-30T05:00:18.598Z,4.10
2018-09-30T05:02:50.174Z,4.10
2018-09-30T05:05:20.315Z,3.90
2018-09-30T05:07:50.711Z,4.10
2018-09-30T05:10:21.422Z,4.00
2018-09-30T05:12:53.697Z,4.70
2018-09-30T05:15:23.818Z,4.10
2018-09-30T05:17:54.108Z,4.10
2018-09-30T05:20:24.836Z,4.07
2018-09-30T05:22:56.364Z,4.47
2018-09-30T05:25:27.889Z,4.10
2018-09-30T05:27:58.458Z,3.93
2018-09-30T05:30:30.049Z,3.67
2018-09-30T05:33:00.924Z,4.40
2018-09-30T05:35:32.770Z,4.03
2018-09-30T05:38:03.798Z,4.10
2018-09-30T05:40:34.306Z,4.27
2018-09-30T05:43:05.572Z,4.70
2018-09-30T05:45:37.182Z,3.70
2018-09-30T05:48:10.686Z,4.07
2018-09-30T05:50:49.219Z,4.60
2018-09-30T05:53:21.000Z,4.20
2018-09-30T05:55:51.913Z,4.03
2018-09-30T05:58:22.962Z,3.97
2018-09-30T06:01:01.997Z,3.83
2018-09-30T06:03:34.527Z,4.20
2018-09-30T06:06:04.977Z,4.37
2018-09-30T06:08:37.261Z,3.90
2018-09-30T06:11:07.877Z,4.17
2018-09-30T06:13:39.254Z,3.70
2018-09-30T06:16:11.664Z,4.27
2018-09-30T06:18:42.110Z,3.67
2018-09-30T06:21:13.229Z,4.33
2018-09-30T06:23:43.696Z,3.80
2018-09-30T06:26:13.961Z,3.63
2018-09-30T06:28:44.574Z,3.83
2018-09-30T06:31:15.382Z,4.20
2018-09-30T06:33:45.557Z,4.23
2018-09-30T06:36:16.413Z,3.70
2018-09-30T06:38:46.868Z,4.07
2018-09-30T06:41:19.565Z,4.40
2018-09-30T06:43:50.228Z,4.03
2018-09-30T06:46:22.516Z,3.87
2018-09-30T06:48:54.341Z,4.00
2018-09-30T06:51:24.860Z,4.73
2018-09-30T06:53:55.129Z,4.30
2018-09-30T06:56:25.564Z,4.40
2018-09-30T06:59:01.065Z,3.70
2018-09-30T07:01:33.415Z,4.23
2018-09-30T07:04:04.843Z,4.00
2018-09-30T07:06:39.354Z,3.40
2018-09-30T07:09:12.947Z,3.73
2018-09-30T07:11:43.289Z,4.23
2018-09-30T07:14:15.250Z,3.97
2018-09-30T07:16:47.312Z,4.13
2018-09-30T07:19:17.924Z,3.90
2018-09-30T07:21:49.400Z,3.50
2018-09-30T07:24:20.829Z,3.70
2018-09-30T07:26:52.929Z,3.97
2018-09-30T07:29:25.503Z,3.60
2018-09-30T07:32:00.741Z,3.83
2018-09-30T07:34:32.674Z,3.70
2018-09-30T07:37:03.877Z,3.80
2018-09-30T07:39:34.697Z,3.70
2018-09-30T07:42:07.356Z,4.00
2018-09-30T07:44:39.580Z,3.40
2018-09-30T07:47:10.228Z,3.50
2018-09-30T07:49:41.075Z,3.27
2018-09-30T07:52:12.690Z,3.30
2018-09-30T07:54:44.597Z,3.00
2018-09-30T07:57:16.472Z,2.93
2018-09-30T07:59:48.831Z,3.30
2018-09-30T08:02:21.435Z,2.80
2018-09-30T08:04:52.207Z,2.87
2018-09-30T08:07:24.069Z,2.80
2018-09-30T08:09:55.027Z,3.00
2018-09-30T08:12:25.838Z,3.03
2018-09-30T08:14:56.223Z,2.60
2018-09-30T08:17:27.042Z,2.80
2018-09-30T08:19:57.193Z,2.57
2018-09-30T08:22:28.323Z,2.70
2018-09-30T08:25:00.220Z,2.17
2018-09-30T08:27:35.491Z,2.27
2018-09-30T08:30:07.554Z,1.60
2018-09-30T08:32:41.040Z,2.00
2018-09-30T08:35:11.781Z,1.80
2018-09-30T08:37:47.794Z,1.90
2018-09-30T08:40:23.484Z,1.33
2018-09-30T08:42:54.673Z,1.60
2018-09-30T08:45:26.985Z,1.60
2018-09-30T08:47:57.692Z,1.60
2018-09-30T08:50:34.669Z,1.60
2018-09-30T08:53:05.060Z,1.57
2018-09-30T08:55:36.711Z,1.50
2018-09-30T08:58:12.136Z,1.40
2018-09-30T09:00:43.964Z,1.43
2018-09-30T09:03:14.210Z,1.60
2018-09-30T09:05:50.451Z,1.47
2018-09-30T09:08:20.973Z,1.63
2018-09-30T09:10:52.226Z,1.30
2018-09-30T09:13:23.318Z,1.40
2018-09-30T09:16:46.712Z,1.50
2018-09-30T09:19:28.365Z,1.40
2018-09-30T09:22:03.808Z,1.50
2018-09-30T09:24:37.547Z,1.30
2018-09-30T09:27:09.612Z,1.40
2018-09-30T09:29:40.093Z,1.57
2018-09-30T09:32:28.898Z,1.40
2018-09-30T09:35:14.381Z,1.50
2018-09-30T09:37:54.245Z,1.70
2018-09-30T09:40:47.834Z,1.30
2018-09-30T09:43:19.495Z,1.30
2018-09-30T09:45:54.514Z,1.40
2018-09-30T09:48:25.202Z,1.73
2018-09-30T09:50:56.722Z,1.40
2018-09-30T09:53:32.226Z,1.47
2018-09-30T09:56:08.202Z,1.30
2018-09-30T09:58:38.574Z,1.17
2018-09-30T10:01:11.148Z,1.10
2018-09-30T10:03:47.928Z,1.23
2018-09-30T10:06:23.038Z,1.30
2018-09-30T10:09:01.772Z,1.10
2018-09-30T10:11:38.396Z,1.40
2018-09-30T10:14:10.556Z,1.33
2018-09-30T10:16:42.604Z,1.40
2018-09-30T10:19:13.779Z,1.47
2018-09-30T10:21:46.224Z,1.30
2018-09-30T10:24:17.328Z,1.47
2018-09-30T10:26:49.130Z,1.30
2018-09-30T10:29:20.706Z,1.43
2018-09-30T10:31:52.137Z,1.40
2018-09-30T10:34:23.676Z,1.40
2018-09-30T10:36:54.893Z,1.30
2018-09-30T10:39:26.215Z,1.40
2018-09-30T10:42:00.809Z,1.33
2018-09-30T10:44:32.405Z,1.47
2018-09-30T10:47:04.738Z,1.43
2018-09-30T10:49:37.507Z,1.40
2018-09-30T10:52:07.864Z,1.77
2018-09-30T10:54:39.008Z,1.60
2018-09-30T10:57:15.549Z,1.47
2018-09-30T10:59:45.922Z,1.80
2018-09-30T11:02:17.096Z,1.93
2018-09-30T11:04:47.876Z,2.00
2018-09-30T11:07:18.776Z,1.90
2018-09-30T11:09:49.540Z,1.83
2018-09-30T11:12:21.141Z,1.50
2018-09-30T11:14:52.259Z,1.80
2018-09-30T11:17:23.722Z,1.73
2018-09-30T11:19:55.368Z,1.80
2018-09-30T11:22:27.065Z,1.67
2018-09-30T11:24:59.113Z,1.70
2018-09-30T11:27:32.444Z,2.00
2018-09-30T11:30:04.284Z,2.07
2018-09-30T11:32:36.402Z,1.77
2018-09-30T11:35:08.042Z,1.50
2018-09-30T11:37:43.844Z,1.70
2018-09-30T11:40:15.383Z,2.20
2018-09-30T11:42:46.409Z,2.30
2018-09-30T11:45:18.573Z,2.00
2018-09-30T11:47:50.309Z,2.10
2018-09-30T11:50:22.981Z,2.43
2018-09-30T11:52:54.419Z,2.30
2018-09-30T11:58:09.898Z,2.07
2018-09-30T12:00:40.498Z,2.17
2018-09-30T12:03:15.687Z,2.30
2018-09-30T12:05:51.528Z,2.03
2018-09-30T12:08:22.895Z,2.30
2018-09-30T12:10:56.102Z,1.97
2018-09-30T12:13:34.998Z,2.17
2018-09-30T12:16:06.691Z,2.23
2018-09-30T12:18:39.350Z,1.90
2018-09-30T12:21:10.799Z,2.43
2018-09-30T12:23:42.732Z,2.20
2018-09-30T12:26:14.835Z,2.50
2018-09-30T12:28:47.120Z,1.97
2018-09-30T12:31:18.036Z,2.07
2018-09-30T12:33:49.773Z,2.10
2018-09-30T12:36:24.824Z,1.93
2018-09-30T12:38:55.552Z,2.60
2018-09-30T12:41:27.491Z,2.63
2018-09-30T12:43:59.296Z,2.10
2018-09-30T12:46:37.218Z,2.50
2018-09-30T12:49:09.427Z,2.33
2018-09-30T12:51:42.005Z,2.30
2018-09-30T12:54:12.462Z,2.23
2018-09-30T12:56:42.601Z,2.20
2018-09-30T12:59:20.068Z,2.60
2018-09-30T13:01:52.340Z,2.40
2018-09-30T13:04:22.793Z,2.70
2018-09-30T13:06:56.801Z,2.50
2018-09-30T13:09:27.982Z,2.63
2018-09-30T13:12:04.487Z,2.27
2018-09-30T13:14:35.409Z,2.40
2018-09-30T13:17:06.119Z,2.33
2018-09-30T13:19:38.321Z,2.60
2018-09-30T13:22:09.226Z,2.20
2018-09-30T13:24:41.430Z,2.87
2018-09-30T13:27:12.892Z,2.30
2018-09-30T13:29:47.838Z,2.30
2018-09-30T13:32:18.132Z,2.43
2018-09-30T13:34:48.996Z,2.87
2018-09-30T13:37:23.457Z,2.20
2018-09-30T13:39:54.879Z,2.70
2018-09-30T13:42:42.834Z,2.20
2018-09-30T13:48:09.390Z,2.10
2018-09-30T13:50:43.563Z,3.30
2018-09-30T13:53:15.917Z,2.07
2018-09-30T13:55:51.439Z,2.27
2018-09-30T13:58:23.335Z,2.80
2018-09-30T14:00:55.873Z,2.47
2018-09-30T14:03:28.025Z,2.43
2018-09-30T14:05:59.672Z,2.57
2018-09-30T14:08:31.941Z,2.73
2018-09-30T14:11:02.403Z,2.50
2018-09-30T14:13:34.046Z,2.70
2018-09-30T14:16:05.286Z,2.63
2018-09-30T14:18:37.742Z,2.67
2018-09-30T14:21:10.942Z,2.50
2018-09-30T14:23:41.203Z,2.80
2018-09-30T14:26:13.832Z,2.53
2018-09-30T14:28:46.560Z,2.83
2018-09-30T14:31:19.283Z,2.93
2018-09-30T14:33:49.678Z,2.47
2018-09-30T14:36:20.153Z,3.33
2018-09-30T14:38:51.631Z,2.97
2018-09-30T14:41:27.672Z,3.20
2018-09-30T14:43:59.623Z,2.97
2018-09-30T14:49:09.258Z,2.57
2018-09-30T14:51:39.855Z,2.80
2018-09-30T14:54:11.968Z,2.97
2018-09-30T14:56:42.667Z,2.73
2018-09-30T14:59:15.923Z,2.90
2018-09-30T15:01:46.845Z,2.83
2018-09-30T15:04:17.498Z,3.03
2018-09-30T15:06:49.579Z,3.30
2018-09-30T15:09:20.026Z,3.23
2018-09-30T15:11:52.963Z,3.00
2018-09-30T15:14:26.686Z,2.93
2018-09-30T15:16:57.284Z,2.77
2018-09-30T15:19:30.250Z,2.70
2018-09-30T15:22:02.487Z,2.80
2018-09-30T15:24:34.595Z,2.90
2018-09-30T15:27:05.254Z,2.70
2018-09-30T15:29:42.113Z,2.77
2018-09-30T15:32:13.266Z,2.57
2018-09-30T15:34:45.844Z,3.20
2018-09-30T15:37:17.384Z,2.90
2018-09-30T15:39:48.718Z,2.93
2018-09-30T15:42:21.993Z,2.60
2018-09-30T15:45:01.223Z,2.90
2018-09-30T15:47:34.925Z,2.63
2018-09-30T15:50:07.161Z,3.03
2018-09-30T15:52:39.395Z,2.90
2018-09-30T15:55:13.580Z,2.93
2018-09-30T15:57:44.682Z,3.13
2018-09-30T16:00:16.736Z,3.00
2018-09-30T16:02:47.269Z,3.13
2018-09-30T16:05:20.331Z,3.43
2018-09-30T16:08:03.766Z,3.30
2018-09-30T16:10:34.151Z,3.10
2018-09-30T16:13:08.350Z,2.90
2018-09-30T16:15:40.163Z,3.17
2018-09-30T16:18:19.127Z,3.13
2018-09-30T16:21:00.758Z,3.27
2018-09-30T16:23:33.233Z,3.50
2018-09-30T16:26:15.139Z,3.53
2018-09-30T16:28:47.324Z,3.60
2018-09-30T16:31:19.306Z,3.60
2018-09-30T16:33:51.250Z,3.43
2018-09-30T16:36:21.805Z,3.50
2018-09-30T16:38:52.605Z,4.27
2018-09-30T16:41:28.340Z,3.60
2018-09-30T16:43:59.339Z,3.53
2018-09-30T16:46:30.958Z,3.10
2018-09-30T16:49:02.981Z,3.13
2018-09-30T16:51:34.160Z,3.57
2018-09-30T16:54:05.798Z,3.70
2018-09-30T16:56:39.001Z,5.17
2018-09-30T16:59:10.705Z,5.33
2018-09-30T17:01:42.098Z,5.00
2018-09-30T17:04:13.578Z,3.80
2018-09-30T17:06:47.671Z,3.93
2018-09-30T17:09:20.006Z,3.73
2018-09-30T17:11:52.671Z,4.13
2018-09-30T17:14:25.035Z,4.50
2018-09-30T17:16:55.543Z,4.80
2018-09-30T17:19:29.303Z,5.27
2018-09-30T17:22:00.656Z,4.10
2018-09-30T17:24:32.825Z,3.80
2018-09-30T17:27:04.765Z,4.17
2018-09-30T17:29:39.184Z,4.53
2018-09-30T17:32:17.129Z,5.20
2018-09-30T17:34:49.557Z,5.90
2018-09-30T17:37:26.446Z,5.37
2018-09-30T17:39:58.998Z,5.10
2018-09-30T17:42:29.539Z,5.40
2018-09-30T17:45:02.238Z,5.20
2018-09-30T17:47:34.658Z,5.40
2018-09-30T17:50:06.203Z,7.27
2018-09-30T17:52:39.902Z,6.20
2018-09-30T17:55:10.981Z,6.47
2018-09-30T17:57:53.804Z,6.37
2018-09-30T18:00:43.043Z,5.83
2018-09-30T18:03:13.549Z,6.87
2018-09-30T18:05:44.920Z,6.97
2018-09-30T18:08:22.242Z,6.70
2018-09-30T18:10:55.023Z,6.57
2018-09-30T18:13:34.412Z,6.60
2018-09-30T18:16:11.289Z,6.70
2018-09-30T18:18:43.423Z,6.70
2018-09-30T18:21:15.108Z,6.03
2018-09-30T18:23:45.821Z,6.97
2018-09-30T18:26:16.143Z,6.57
2018-09-30T18:28:50.033Z,7.47
2018-09-30T18:31:25.550Z,7.50
2018-09-30T18:33:56.903Z,7.20
2018-09-30T18:36:27.801Z,7.67
2018-09-30T18:38:58.897Z,7.20
2018-09-30T18:41:29.199Z,7.27
2018-09-30T18:43:59.659Z,7.90
2018-09-30T18:46:32.994Z,8.10
2018-09-30T18:49:02.973Z,7.63
2018-09-30T18:51:33.650Z,8.67
2018-09-30T18:54:05.723Z,9.10
2018-09-30T18:56:36.797Z,9.67
2018-09-30T18:59:06.692Z,9.63
2018-09-30T19:01:37.642Z,9.50
2018-09-30T19:04:07.975Z,9.83
2018-09-30T19:06:38.478Z,9.50
2018-09-30T19:09:11.017Z,9.13
2018-09-30T19:11:49.757Z,8.97
2018-09-30T19:14:20.438Z,8.67
2018-09-30T19:16:52.137Z,8.30
2018-09-30T19:19:22.857Z,7.83
2018-09-30T19:21:55.356Z,8.70
2018-09-30T19:24:25.584Z,7.97
2018-09-30T19:26:55.745Z,8.20
2018-09-30T19:29:28.023Z,8.20
2018-09-30T19:34:36.348Z,7.63
2018-09-30T19:37:06.360Z,8.17
2018-09-30T19:39:37.627Z,8.40
2018-09-30T19:42:09.341Z,8.20
2018-09-30T19:44:41.023Z,7.10
2018-09-30T19:47:12.595Z,8.17
2018-09-30T19:49:43.225Z,7.83
2018-09-30T19:52:16.275Z,7.27
2018-09-30T19:54:46.925Z,7.17
2018-09-30T19:57:17.379Z,6.80
2018-09-30T19:59:48.294Z,7.13
2018-09-30T20:02:19.360Z,6.30
2018-09-30T20:04:50.023Z,6.57
2018-09-30T20:07:21.166Z,6.47
2018-09-30T20:09:52.893Z,7.00
2018-09-30T20:12:25.292Z,6.83
2018-09-30T20:14:55.729Z,6.60
2018-09-30T20:17:27.172Z,7.20
2018-09-30T20:19:57.245Z,6.90
2018-09-30T20:22:28.464Z,6.77
2018-09-30T20:24:59.800Z,7.03
2018-09-30T20:27:31.681Z,7.27
2018-09-30T20:30:02.360Z,7.30
2018-09-30T20:32:32.217Z,7.37
2018-09-30T20:35:03.210Z,6.77
2018-09-30T20:37:36.614Z,6.70
2018-09-30T20:40:08.435Z,6.67
2018-09-30T20:42:39.516Z,6.90
2018-09-30T20:45:14.432Z,6.63
2018-09-30T20:47:44.894Z,7.00
2018-09-30T20:50:16.715Z,7.90
2018-09-30T20:52:47.124Z,6.60
2018-09-30T20:55:17.467Z,6.33
2018-09-30T20:57:49.347Z,6.40
2018-09-30T21:00:20.510Z,6.60
2018-09-30T21:02:52.301Z,6.67
2018-09-30T21:05:32.012Z,6.80
2018-09-30T21:08:02.195Z,6.50
2018-09-30T21:10:32.989Z,6.60
2018-09-30T21:13:04.137Z,7.30
2018-09-30T21:15:33.995Z,7.07
2018-09-30T21:18:04.451Z,7.50
2018-09-30T21:20:35.437Z,8.40
2018-09-30T21:23:05.687Z,7.70
2018-09-30T21:25:35.572Z,7.57
2018-09-30T21:28:07.351Z,7.67
2018-09-30T21:30:38.838Z,7.60
2018-09-30T21:33:09.837Z,7.87
2018-09-30T21:35:41.567Z,7.40
2018-09-30T21:38:12.459Z,7.37
2018-09-30T21:40:42.950Z,7.97
2018-09-30T21:43:15.146Z,6.80
2018-09-30T21:45:45.634Z,7.50
2018-09-30T21:48:17.850Z,7.23
2018-09-30T21:50:49.246Z,7.70
2018-09-30T21:53:19.376Z,7.40
2018-09-30T21:55:50.921Z,7.87
2018-09-30T21:58:22.268Z,7.70
2018-09-30T22:00:58.655Z,7.50
2018-09-30T22:03:29.170Z,7.80
2018-09-30T22:06:01.563Z,7.50
2018-09-30T22:08:32.357Z,7.70
2018-09-30T22:11:02.511Z,7.30
2018-09-30T22:13:32.802Z,7.90
2018-09-30T22:16:02.726Z,7.83
2018-09-30T22:18:32.653Z,7.40
2018-09-30T22:21:03.262Z,7.90
2018-09-30T22:23:33.220Z,7.97
2018-09-30T22:26:04.027Z,7.67
2018-09-30T22:28:33.777Z,7.37
2018-09-30T22:31:03.791Z,7.80
2018-09-30T22:33:33.541Z,7.43
2018-09-30T22:36:10.398Z,6.97
2018-09-30T22:38:40.478Z,7.03
2018-09-30T22:41:10.516Z,6.80
2018-09-30T22:43:41.372Z,6.97
2018-09-30T22:46:11.612Z,7.93
2018-09-30T22:48:42.072Z,6.83
2018-09-30T22:51:12.536Z,7.07
2018-09-30T22:53:42.809Z,6.90
2018-09-30T22:56:13.260Z,6.80
2018-09-30T22:58:43.492Z,7.00
2018-09-30T23:01:14.690Z,6.80
2018-09-30T23:03:45.284Z,7.07
2018-09-30T23:06:15.608Z,7.40
2018-09-30T23:08:46.712Z,6.47
2018-09-30T23:11:21.577Z,6.80
2018-09-30T23:13:52.112Z,7.00
2018-09-30T23:16:23.033Z,6.60
2018-09-30T23:18:53.548Z,6.60
2018-09-30T23:21:23.454Z,6.63
2018-09-30T23:23:54.016Z,6.90
2018-09-30T23:26:24.241Z,6.27
2018-09-30T23:28:55.153Z,6.70
2018-09-30T23:31:25.725Z,6.70
2018-09-30T23:33:57.271Z,6.60
2018-09-30T23:36:31.739Z,7.03
2018-09-30T23:39:01.995Z,6.93
2018-09-30T23:41:31.684Z,7.90
2018-09-30T23:44:02.492Z,7.47
2018-09-30T23:46:33.366Z,7.37
2018-09-30T23:49:04.065Z,7.53
2018-09-30T23:51:34.825Z,7.50
2018-09-30T23:54:05.494Z,7.53
2018-09-30T23:56:39.256Z,7.90
2018-09-30T23:59:12.640Z,7.43
